Time;durP1;ratioP1;P1;durP2;ratioP2;P2;SDS_P1;SDS_P2;PMS_P1;PMS_P2;Temp;Humidity;BMP_temperature;BMP_pressure;BME280_temperature;BME280_humidity;BME280_pressure;Samples;Min_cycle;Max_cycle;Signal;HPM_P1;HPM_P2
2021/06/30 00:01:04;;;;;;;3.47;1.10;;;16.90;1.00;;;;;;5013822;28;20022;-92
2021/06/30 00:03:29;;;;;;;3.08;0.90;;;16.90;1.00;;;;;;5013662;28;20077;-92
2021/06/30 00:05:58;;;;;;;3.65;0.90;;;17.00;1.00;;;;;;5014230;28;20070;-92
2021/06/30 00:08:23;;;;;;;3.55;0.98;;;17.10;1.00;;;;;;5014706;28;20758;-91
2021/06/30 00:10:49;;;;;;;4.28;1.13;;;17.00;1.00;;;;;;5014372;28;20021;-92
2021/06/30 00:13:15;;;;;;;3.55;1.05;;;16.90;1.00;;;;;;5013492;28;20121;-92
2021/06/30 00:15:42;;;;;;;2.30;0.90;;;16.90;1.00;;;;;;5014415;28;20022;-92
2021/06/30 00:18:09;;;;;;;6.03;1.00;;;16.90;1.00;;;;;;5014750;28;20046;-92
2021/06/30 00:20:35;;;;;;;3.85;0.90;;;17.00;1.00;;;;;;5013290;28;20076;-92
2021/06/30 00:23:01;;;;;;;4.43;0.93;;;17.20;1.00;;;;;;5013961;28;20494;-90
2021/06/30 00:25:27;;;;;;;3.20;1.02;;;17.10;1.00;;;;;;5012898;28;20025;-91
2021/06/30 00:27:53;;;;;;;2.20;1.65;;;17.10;1.00;;;;;;5013018;28;20589;-92
2021/06/30 00:30:19;;;;;;;6.82;1.30;;;16.90;1.00;;;;;;5014562;28;20045;-91
2021/06/30 00:32:45;;;;;;;2.40;1.45;;;16.80;1.00;;;;;;5013070;28;20041;-92
2021/06/30 00:35:15;;;;;;;3.47;1.25;;;16.90;1.00;;;;;;5014253;28;20112;-92
2021/06/30 00:37:42;;;;;;;1.67;0.93;;;16.90;1.00;;;;;;5014018;28;20430;-91
2021/06/30 00:40:09;;;;;;;6.95;1.08;;;16.80;1.00;;;;;;5012993;28;20604;-91
2021/06/30 00:42:35;;;;;;;2.53;1.20;;;16.70;1.00;;;;;;5013078;28;20513;-92
2021/06/30 00:45:02;;;;;;;3.38;1.30;;;16.60;1.00;;;;;;5012799;28;20181;-90
2021/06/30 00:47:27;;;;;;;4.38;1.00;;;16.80;1.00;;;;;;5012890;28;20041;-91
2021/06/30 00:49:53;;;;;;;5.38;1.17;;;16.70;1.00;;;;;;5012838;28;20030;-91
2021/06/30 00:52:19;;;;;;;4.00;1.20;;;16.70;1.00;;;;;;5013927;28;20598;-90
2021/06/30 00:54:44;;;;;;;5.57;1.05;;;16.70;1.00;;;;;;5014083;28;20030;-91
2021/06/30 00:57:11;;;;;;;5.05;1.20;;;16.60;1.00;;;;;;5013049;28;20160;-91
2021/06/30 00:59:37;;;;;;;4.07;1.27;;;16.50;1.00;;;;;;5012741;28;20516;-91
2021/06/30 01:02:03;;;;;;;3.13;1.30;;;16.40;1.00;;;;;;5013878;28;20028;-91
2021/06/30 01:04:29;;;;;;;1.60;1.10;;;16.30;1.00;;;;;;5013653;28;20034;-91
2021/06/30 01:06:55;;;;;;;4.88;1.02;;;16.50;1.00;;;;;;5012133;28;20030;-91
2021/06/30 01:09:20;;;;;;;4.90;1.17;;;16.50;1.00;;;;;;5012623;28;20033;-91
2021/06/30 01:11:46;;;;;;;4.18;1.13;;;16.50;1.00;;;;;;5013566;28;20033;-93
2021/06/30 01:14:22;;;;;;;3.30;1.27;;;16.40;1.00;;;;;;5029147;28;20022;-91
2021/06/30 01:16:48;;;;;;;4.07;1.13;;;16.40;1.00;;;;;;5013308;28;20092;-89
2021/06/30 01:19:18;;;;;;;3.45;0.88;;;16.30;1.00;;;;;;5015285;28;20034;-92
2021/06/30 01:21:44;;;;;;;2.55;1.23;;;16.30;1.00;;;;;;5015820;28;20125;-91
2021/06/30 01:24:09;;;;;;;6.07;1.00;;;16.90;1.00;;;;;;5016388;28;20570;-92
2021/06/30 01:26:35;;;;;;;5.63;1.17;;;16.30;1.00;;;;;;5016856;28;20041;-91
2021/06/30 01:29:01;;;;;;;3.30;1.30;;;16.40;1.00;;;;;;5016249;28;20098;-91
2021/06/30 01:31:26;;;;;;;3.63;1.20;;;16.50;1.00;;;;;;5017459;28;20030;-91
2021/06/30 01:33:52;;;;;;;1.70;1.27;;;16.60;1.00;;;;;;4998808;28;20037;-92
2021/06/30 01:36:18;;;;;;;3.42;1.00;;;16.60;1.00;;;;;;5010131;28;20563;-91
2021/06/30 01:38:44;;;;;;;3.90;1.10;;;16.70;1.00;;;;;;4999480;28;20557;-91
2021/06/30 01:41:11;;;;;;;4.75;1.10;;;16.50;1.00;;;;;;5009818;28;20077;-91
2021/06/30 01:43:37;;;;;;;4.15;1.10;;;16.60;1.00;;;;;;5015827;28;20041;-92
2021/06/30 01:46:03;;;;;;;5.53;1.10;;;16.40;1.00;;;;;;5016686;28;20486;-91
2021/06/30 01:48:28;;;;;;;2.15;1.23;;;16.60;1.00;;;;;;5019124;28;20029;-91
2021/06/30 01:50:54;;;;;;;4.00;1.17;;;16.60;1.00;;;;;;5018842;28;20030;-91
2021/06/30 01:53:20;;;;;;;4.20;1.17;;;16.60;1.00;;;;;;5018771;28;20038;-91
2021/06/30 01:55:46;;;;;;;3.42;1.00;;;16.60;1.00;;;;;;5020385;28;20026;-90
2021/06/30 01:58:15;;;;;;;6.95;1.20;;;16.60;1.00;;;;;;5019360;28;20076;-91
2021/06/30 02:00:40;;;;;;;2.08;1.05;;;16.80;1.00;;;;;;5016928;28;20029;-92
2021/06/30 02:03:06;;;;;;;4.90;0.95;;;16.70;1.00;;;;;;5015870;28;20034;-91
2021/06/30 02:05:32;;;;;;;2.97;0.95;;;16.70;1.00;;;;;;5016307;28;20076;-92
2021/06/30 02:07:59;;;;;;;7.38;1.10;;;16.70;1.00;;;;;;5017029;28;20406;-92
2021/06/30 02:10:27;;;;;;;1.85;1.00;;;16.70;1.00;;;;;;5016653;28;20026;-91
2021/06/30 02:12:53;;;;;;;2.75;1.27;;;16.80;1.00;;;;;;5015664;28;20505;-91
2021/06/30 02:15:24;;;;;;;7.30;0.98;;;16.90;1.00;;;;;;5015654;28;20025;-90
2021/06/30 02:17:50;;;;;;;2.35;0.90;;;16.90;1.00;;;;;;5014954;28;20057;-91
2021/06/30 02:20:17;;;;;;;1.60;0.90;;;16.90;1.00;;;;;;5016238;28;20022;-91
2021/06/30 02:22:45;;;;;;;5.45;1.08;;;16.80;1.00;;;;;;5014837;28;20077;-91
2021/06/30 02:25:17;;;;;;;5.70;1.20;;;16.90;1.00;;;;;;5015308;28;20037;-91
2021/06/30 02:27:43;;;;;;;4.43;1.30;;;16.70;1.00;;;;;;5016425;28;20390;-91
2021/06/30 02:30:12;;;;;;;3.03;1.10;;;16.60;1.00;;;;;;5015919;28;20109;-91
2021/06/30 02:32:40;;;;;;;4.07;1.40;;;16.50;1.00;;;;;;5017044;28;20525;-91
2021/06/30 02:35:10;;;;;;;5.05;1.20;;;16.50;1.00;;;;;;5016072;28;20504;-91
2021/06/30 02:37:36;;;;;;;2.15;1.00;;;16.60;1.00;;;;;;5016274;28;20037;-92
2021/06/30 02:40:05;;;;;;;2.78;1.17;;;16.40;1.00;;;;;;5014781;28;20505;-92
2021/06/30 02:42:30;;;;;;;3.67;1.08;;;16.40;1.00;;;;;;4996676;28;20030;-91
2021/06/30 02:44:56;;;;;;;3.83;1.08;;;16.30;1.00;;;;;;5015642;28;20029;-91
2021/06/30 02:47:22;;;;;;;3.65;1.02;;;16.40;1.00;;;;;;5014754;28;20174;-91
2021/06/30 02:49:47;;;;;;;3.65;1.00;;;16.40;1.00;;;;;;5014643;28;20056;-91
2021/06/30 02:52:13;;;;;;;8.35;1.15;;;16.30;1.00;;;;;;5015679;28;20026;-91
2021/06/30 02:54:39;;;;;;;2.78;1.15;;;16.20;1.00;;;;;;5014835;28;20511;-91
2021/06/30 02:57:04;;;;;;;4.40;1.08;;;16.10;1.00;;;;;;4996025;28;20038;-91
2021/06/30 02:59:30;;;;;;;6.70;1.17;;;16.00;1.00;;;;;;4996641;28;20022;-91
2021/06/30 03:01:55;;;;;;;5.35;1.13;;;16.00;1.00;;;;;;5014250;28;20132;-91
2021/06/30 03:04:21;;;;;;;5.65;1.42;;;16.00;1.00;;;;;;5014011;28;20034;-91
2021/06/30 03:06:47;;;;;;;7.55;1.35;;;16.00;1.00;;;;;;5015903;28;20030;-91
2021/06/30 03:09:12;;;;;;;2.53;1.40;;;15.80;1.00;;;;;;5015504;28;20033;-92
2021/06/30 03:11:39;;;;;;;7.53;1.40;;;16.20;1.00;;;;;;5015836;28;20056;-91
2021/06/30 03:14:05;;;;;;;2.78;1.30;;;15.70;1.00;;;;;;5015684;28;20029;-91
2021/06/30 03:16:31;;;;;;;10.20;1.30;;;15.70;1.00;;;;;;5014174;28;20030;-91
2021/06/30 03:18:57;;;;;;;3.80;1.13;;;15.60;1.00;;;;;;5015357;28;20026;-91
2021/06/30 03:21:23;;;;;;;4.57;1.30;;;15.70;1.00;;;;;;5015232;28;20030;-91
2021/06/30 03:23:48;;;;;;;8.68;1.42;;;15.70;1.00;;;;;;5001225;28;20509;-91
2021/06/30 03:26:14;;;;;;;3.08;1.35;;;15.60;1.00;;;;;;4996069;28;20394;-92
2021/06/30 03:28:40;;;;;;;6.32;1.50;;;15.60;1.00;;;;;;4995247;28;20041;-90
2021/06/30 03:31:05;;;;;;;4.43;1.90;;;15.60;1.00;;;;;;5014231;28;20022;-91
2021/06/30 03:33:31;;;;;;;1.50;1.40;;;15.50;1.00;;;;;;5015155;28;20104;-91
2021/06/30 03:35:56;;;;;;;7.80;2.08;;;15.60;1.00;;;;;;5015277;28;20033;-91
2021/06/30 03:38:22;;;;;;;6.20;1.70;;;15.50;1.00;;;;;;5014140;28;20037;-91
2021/06/30 03:40:48;;;;;;;9.55;2.03;;;15.50;1.00;;;;;;5013396;28;20072;-92
2021/06/30 03:43:13;;;;;;;6.68;2.08;;;15.50;1.00;;;;;;5013845;28;20409;-91
2021/06/30 03:45:39;;;;;;;3.70;1.75;;;15.60;1.00;;;;;;5014259;28;20033;-91
2021/06/30 03:48:05;;;;;;;3.03;1.85;;;15.50;1.00;;;;;;5014349;28;20045;-91
2021/06/30 03:50:31;;;;;;;6.65;1.60;;;15.60;1.00;;;;;;5013759;28;20041;-91
2021/06/30 03:52:57;;;;;;;6.53;1.83;;;15.50;1.00;;;;;;5014923;28;20331;-91
2021/06/30 03:55:22;;;;;;;4.63;1.75;;;15.50;1.00;;;;;;5013484;28;21782;-91
2021/06/30 03:57:48;;;;;;;3.53;1.38;;;15.40;1.00;;;;;;5014652;28;20018;-91
2021/06/30 04:00:14;;;;;;;2.97;1.52;;;15.30;1.00;;;;;;5014596;28;20075;-92
2021/06/30 04:02:39;;;;;;;2.63;1.60;;;15.40;1.00;;;;;;5015675;28;20121;-92
2021/06/30 04:05:06;;;;;;;6.97;1.60;;;15.40;1.00;;;;;;5017224;28;20025;-92
2021/06/30 04:07:33;;;;;;;4.15;1.77;;;15.40;1.00;;;;;;5018393;28;20049;-91
2021/06/30 04:09:58;;;;;;;2.67;1.60;;;15.30;1.00;;;;;;5017072;28;20044;-91
2021/06/30 04:12:24;;;;;;;4.57;1.90;;;15.40;1.00;;;;;;5017130;28;20018;-92
2021/06/30 04:14:49;;;;;;;9.23;1.88;;;15.30;1.00;;;;;;5017373;28;20057;-91
2021/06/30 04:17:15;;;;;;;3.70;2.13;;;15.40;1.00;;;;;;5013603;28;20113;-91
2021/06/30 04:19:41;;;;;;;4.78;2.50;;;15.50;1.00;;;;;;5013455;28;20036;-91
2021/06/30 04:22:06;;;;;;;6.03;2.45;;;15.40;1.00;;;;;;5013222;28;20030;-91
2021/06/30 04:24:32;;;;;;;10.90;2.40;;;15.40;1.00;;;;;;5013516;28;20034;-91
2021/06/30 04:26:58;;;;;;;4.70;2.35;;;15.50;1.00;;;;;;5012824;28;20030;-92
2021/06/30 04:29:23;;;;;;;7.85;2.40;;;15.50;1.00;;;;;;5013305;28;20041;-92
2021/06/30 04:31:49;;;;;;;5.65;2.28;;;15.50;1.00;;;;;;5012578;28;20026;-92
2021/06/30 04:34:14;;;;;;;8.13;3.30;;;15.40;1.00;;;;;;5014202;28;20057;-92
2021/06/30 04:36:40;;;;;;;2.83;1.75;;;15.40;1.00;;;;;;5013400;28;20022;-92
2021/06/30 04:39:06;;;;;;;6.78;2.45;;;15.50;1.00;;;;;;5012892;28;20446;-92
2021/06/30 04:41:31;;;;;;;4.00;1.70;;;15.60;1.00;;;;;;5013089;28;20556;-92
2021/06/30 04:43:57;;;;;;;6.88;2.17;;;15.50;1.00;;;;;;5012873;28;20132;-92
2021/06/30 04:46:23;;;;;;;5.70;1.98;;;15.60;1.00;;;;;;5012786;28;20030;-92
2021/06/30 04:48:48;;;;;;;5.60;2.00;;;15.60;1.00;;;;;;5014119;28;20032;-91
2021/06/30 04:51:14;;;;;;;5.30;2.00;;;16.00;1.00;;;;;;5014335;28;20022;-91
2021/06/30 04:53:40;;;;;;;3.70;1.90;;;15.70;1.00;;;;;;5017957;28;20053;-92
2021/06/30 04:56:05;;;;;;;6.65;2.13;;;15.70;1.00;;;;;;5018155;28;20033;-92
2021/06/30 04:58:31;;;;;;;7.47;2.08;;;15.70;1.00;;;;;;5018131;28;20859;-92
2021/06/30 05:00:57;;;;;;;5.20;1.85;;;15.70;1.00;;;;;;5017680;28;20033;-92
2021/06/30 05:03:27;;;;;;;5.18;2.10;;;15.80;1.00;;;;;;5017518;28;20059;-91
2021/06/30 05:05:56;;;;;;;3.78;2.30;;;15.80;1.00;;;;;;5017520;28;20029;-92
2021/06/30 05:08:23;;;;;;;3.45;2.10;;;15.80;1.00;;;;;;5016454;28;20041;-92
2021/06/30 05:10:50;;;;;;;9.35;2.58;;;15.80;1.00;;;;;;5017778;28;20117;-92
2021/06/30 05:13:16;;;;;;;6.28;2.40;;;16.10;1.00;;;;;;5017450;28;20030;-93
2021/06/30 05:15:42;;;;;;;4.22;1.92;;;15.90;1.00;;;;;;5019608;28;20033;-91
2021/06/30 05:18:10;;;;;;;3.17;2.00;;;15.90;1.00;;;;;;5026845;28;20026;-96
2021/06/30 05:20:36;;;;;;;4.43;1.85;;;15.90;1.00;;;;;;5020392;28;20068;-96
2021/06/30 05:23:09;;;;;;;8.52;2.22;;;16.00;1.00;;;;;;5014765;28;20031;-96
2021/06/30 05:25:35;;;;;;;5.95;1.95;;;16.10;1.00;;;;;;5006888;28;20053;-96
2021/06/30 05:28:01;;;;;;;8.98;2.10;;;16.10;1.00;;;;;;5019073;28;20029;-96
2021/06/30 05:30:29;;;;;;;2.90;1.88;;;16.10;1.00;;;;;;5028058;28;20029;-96
2021/06/30 05:32:55;;;;;;;3.92;2.08;;;16.00;1.00;;;;;;5019536;28;20093;-94
2021/06/30 05:35:20;;;;;;;3.88;1.90;;;16.10;1.00;;;;;;5017072;28;20025;-95
2021/06/30 05:37:46;;;;;;;6.05;1.70;;;16.10;1.00;;;;;;5016712;28;20026;-94
2021/06/30 05:40:12;;;;;;;5.07;2.05;;;16.10;1.00;;;;;;5018108;28;20026;-94
2021/06/30 05:42:38;;;;;;;4.38;2.13;;;16.10;1.00;;;;;;5018623;28;20474;-94
2021/06/30 05:45:06;;;;;;;4.93;2.20;;;16.20;1.00;;;;;;5017883;28;20026;-94
2021/06/30 05:47:32;;;;;;;4.32;1.90;;;16.20;1.00;;;;;;5019668;28;20018;-95
2021/06/30 05:49:58;;;;;;;5.50;1.73;;;16.30;1.00;;;;;;5016222;28;20540;-94
2021/06/30 05:52:24;;;;;;;5.80;2.40;;;16.40;1.00;;;;;;5014146;28;20074;-89
2021/06/30 05:54:49;;;;;;;3.90;2.03;;;16.50;1.00;;;;;;5015053;28;20022;-88
2021/06/30 05:57:15;;;;;;;8.45;2.70;;;16.60;1.00;;;;;;5016335;28;20022;-93
2021/06/30 05:59:40;;;;;;;7.70;2.40;;;16.60;1.00;;;;;;5016534;28;20044;-95
2021/06/30 06:02:07;;;;;;;5.25;2.05;;;16.60;1.00;;;;;;5014840;28;20026;-90
2021/06/30 06:04:32;;;;;;;3.28;2.10;;;16.70;1.00;;;;;;5014562;28;20046;-95
2021/06/30 06:06:58;;;;;;;7.60;3.22;;;16.70;1.00;;;;;;5015876;28;20059;-95
2021/06/30 06:09:24;;;;;;;8.85;3.60;;;16.80;1.00;;;;;;5017248;28;20109;-92
2021/06/30 06:11:50;;;;;;;5.13;2.63;;;16.80;1.00;;;;;;5013874;28;20033;-91
2021/06/30 06:14:15;;;;;;;7.15;3.13;;;16.80;1.00;;;;;;5014069;28;20030;-91
2021/06/30 06:16:41;;;;;;;7.57;3.03;;;16.80;1.00;;;;;;5014425;28;20033;-92
2021/06/30 06:19:07;;;;;;;4.40;2.42;;;17.00;1.00;;;;;;5015609;28;20053;-91
2021/06/30 06:21:33;;;;;;;4.93;3.13;;;17.10;1.00;;;;;;5015584;28;20461;-91
2021/06/30 06:23:59;;;;;;;6.07;2.70;;;17.10;1.00;;;;;;5014352;28;20069;-92
2021/06/30 06:26:24;;;;;;;4.43;2.47;;;17.20;1.00;;;;;;5018656;28;20026;-92
2021/06/30 06:28:50;;;;;;;4.03;2.33;;;17.10;1.00;;;;;;5017387;28;20037;-91
2021/06/30 06:31:17;;;;;;;5.30;2.10;;;17.20;1.00;;;;;;5018355;28;20033;-91
2021/06/30 06:33:43;;;;;;;5.35;2.58;;;17.30;1.00;;;;;;5017880;28;20033;-90
2021/06/30 06:36:09;;;;;;;5.60;2.85;;;17.40;1.00;;;;;;5018618;28;20439;-92
2021/06/30 06:38:37;;;;;;;5.13;2.10;;;17.30;1.00;;;;;;5017838;28;20041;-91
2021/06/30 06:41:04;;;;;;;4.82;2.00;;;17.40;1.00;;;;;;5014281;28;20045;-91
2021/06/30 06:43:31;;;;;;;6.38;2.10;;;17.40;1.00;;;;;;5013836;28;20494;-92
2021/06/30 06:45:56;;;;;;;6.53;2.00;;;17.60;1.00;;;;;;5016203;28;20046;-92
2021/06/30 06:48:22;;;;;;;4.63;1.70;;;17.80;1.00;;;;;;5014223;28;20096;-92
2021/06/30 06:50:48;;;;;;;2.70;1.75;;;18.00;1.00;;;;;;5014476;28;20037;-92
2021/06/30 06:53:13;;;;;;;4.03;1.83;;;17.90;1.00;;;;;;5013621;28;20053;-91
2021/06/30 06:55:39;;;;;;;3.58;1.77;;;17.70;1.00;;;;;;5013906;28;20030;-92
2021/06/30 06:58:05;;;;;;;4.93;1.65;;;17.80;1.00;;;;;;5014073;28;20026;-91
2021/06/30 07:00:30;;;;;;;3.08;1.52;;;18.00;1.00;;;;;;5015213;28;20030;-91
2021/06/30 07:02:56;;;;;;;6.70;1.88;;;18.20;1.00;;;;;;5014569;28;20042;-92
2021/06/30 07:05:22;;;;;;;4.88;1.50;;;17.90;1.00;;;;;;5014543;28;20086;-91
2021/06/30 07:07:47;;;;;;;2.22;1.33;;;18.00;1.00;;;;;;5013300;28;20033;-91
2021/06/30 07:10:13;;;;;;;1.85;1.52;;;18.10;1.00;;;;;;5014541;28;20172;-92
2021/06/30 07:12:39;;;;;;;2.83;1.35;;;18.20;1.00;;;;;;5014706;28;20497;-92
2021/06/30 07:15:06;;;;;;;3.20;1.30;;;18.20;1.00;;;;;;5012674;28;20061;-92
2021/06/30 07:17:34;;;;;;;2.92;1.38;;;18.30;1.00;;;;;;5013024;28;20026;-91
2021/06/30 07:20:01;;;;;;;1.50;1.30;;;18.70;1.00;;;;;;5014162;28;20021;-92
2021/06/30 07:22:26;;;;;;;1.52;1.08;;;18.90;99.90;;;;;;5015370;28;20026;-92
2021/06/30 07:24:52;;;;;;;1.67;1.40;;;19.10;99.90;;;;;;5013438;28;20042;-93
2021/06/30 07:27:17;;;;;;;1.67;1.17;;;19.30;99.90;;;;;;5014037;28;20022;-92
2021/06/30 07:29:44;;;;;;;3.25;1.38;;;19.50;99.90;;;;;;5013193;28;20474;-92
2021/06/30 07:32:10;;;;;;;1.65;1.00;;;19.50;99.90;;;;;;5013116;28;20026;-93
2021/06/30 07:34:36;;;;;;;0.80;0.73;;;19.30;99.90;;;;;;5013751;28;20128;-92
2021/06/30 07:37:01;;;;;;;1.83;0.70;;;19.40;99.90;;;;;;5013478;28;20552;-92
2021/06/30 07:39:29;;;;;;;0.73;0.60;;;19.70;99.90;;;;;;5013246;28;20381;-92
2021/06/30 07:41:55;;;;;;;1.73;0.63;;;20.10;99.90;;;;;;5013851;28;20052;-91
2021/06/30 07:44:21;;;;;;;2.70;1.02;;;20.40;99.90;;;;;;5013739;28;20060;-92
2021/06/30 07:46:47;;;;;;;0.77;0.60;;;20.40;99.90;;;;;;5012968;28;20030;-92
2021/06/30 07:49:13;;;;;;;2.88;0.80;;;20.50;99.90;;;;;;5014100;28;20146;-92
2021/06/30 07:51:39;;;;;;;1.35;0.70;;;20.70;99.90;;;;;;5012750;28;20022;-92
2021/06/30 07:54:04;;;;;;;0.95;0.75;;;20.70;99.90;;;;;;5013297;28;20076;-92
2021/06/30 07:56:38;;;;;;;1.15;0.85;;;20.90;99.90;;;;;;5013245;28;20050;-92
2021/06/30 07:59:05;;;;;;;1.50;0.90;;;21.30;99.90;;;;;;5012594;28;20528;-92
2021/06/30 08:01:31;;;;;;;1.08;0.85;;;21.20;99.90;;;;;;5012673;28;20050;-92
2021/06/30 08:03:57;;;;;;;1.20;0.90;;;21.20;99.90;;;;;;5013839;28;20120;-92
2021/06/30 08:06:23;;;;;;;2.20;0.90;;;21.30;99.90;;;;;;5013281;28;20421;-92
2021/06/30 08:08:49;;;;;;;1.38;0.80;;;21.40;99.90;;;;;;5012207;28;20482;-92
2021/06/30 08:11:16;;;;;;;2.53;1.10;;;21.30;99.90;;;;;;5013567;28;20465;-92
2021/06/30 08:13:41;;;;;;;2.88;0.80;;;21.20;99.90;;;;;;5012583;28;20410;-93
2021/06/30 08:16:07;;;;;;;1.27;0.90;;;21.20;99.90;;;;;;5012733;28;20026;-92
2021/06/30 08:18:33;;;;;;;0.90;0.77;;;21.30;99.90;;;;;;5013370;28;20022;-92
2021/06/30 08:20:58;;;;;;;1.13;0.80;;;21.30;99.90;;;;;;5013355;28;20064;-92
2021/06/30 08:23:24;;;;;;;1.05;0.80;;;21.40;99.90;;;;;;5012090;28;20126;-93
2021/06/30 08:25:49;;;;;;;0.90;0.90;;;21.70;99.90;;;;;;5013401;28;20434;-92
2021/06/30 08:28:19;;;;;;;2.05;0.88;;;21.90;99.90;;;;;;5012828;28;20034;-92
2021/06/30 08:30:44;;;;;;;2.35;0.90;;;21.60;99.90;;;;;;5013659;28;20029;-92
2021/06/30 08:33:11;;;;;;;3.45;1.02;;;21.60;99.90;;;;;;5013452;28;20018;-91
2021/06/30 08:35:36;;;;;;;1.17;0.88;;;21.50;99.90;;;;;;5013052;28;20033;-92
2021/06/30 08:38:03;;;;;;;1.20;1.08;;;21.50;99.90;;;;;;5011749;28;20482;-92
2021/06/30 08:40:29;;;;;;;0.80;0.80;;;21.60;99.90;;;;;;5012393;28;20052;-92
2021/06/30 08:42:54;;;;;;;1.33;0.93;;;21.80;99.90;;;;;;5013456;28;20113;-92
2021/06/30 08:45:20;;;;;;;1.42;1.10;;;21.80;99.90;;;;;;5012186;28;20505;-93
2021/06/30 08:47:47;;;;;;;1.95;0.90;;;22.00;99.90;;;;;;5012422;28;20057;-92
2021/06/30 08:50:13;;;;;;;1.25;0.82;;;22.20;99.90;;;;;;5013575;28;20034;-92
2021/06/30 08:52:40;;;;;;;3.22;0.80;;;22.00;99.90;;;;;;5012871;28;20510;-92
2021/06/30 08:55:09;;;;;;;1.10;0.70;;;22.20;99.90;;;;;;5013093;28;20034;-92
2021/06/30 08:57:37;;;;;;;1.05;0.85;;;22.50;99.90;;;;;;5025901;28;20054;-91
2021/06/30 09:00:06;;;;;;;1.65;1.02;;;22.60;99.90;;;;;;5011041;28;20022;-92
2021/06/30 09:02:31;;;;;;;3.17;0.98;;;22.60;99.90;;;;;;5012963;28;20053;-91
2021/06/30 09:05:12;;;;;;;2.25;1.10;;;22.80;99.90;;;;;;5012762;28;20062;-92
2021/06/30 09:07:39;;;;;;;2.33;0.93;;;23.00;99.90;;;;;;5012367;28;20387;-92
2021/06/30 09:10:05;;;;;;;1.10;1.00;;;22.80;99.90;;;;;;5011591;28;20474;-92
2021/06/30 09:12:39;;;;;;;2.58;1.20;;;22.70;99.90;;;;;;5008369;28;20022;-92
2021/06/30 09:15:18;;;;;;;1.58;1.00;;;22.90;99.90;;;;;;5011467;28;20053;-91
2021/06/30 09:17:46;;;;;;;1.42;1.00;;;23.40;99.90;;;;;;5010892;28;20041;-92
2021/06/30 09:20:12;;;;;;;1.70;1.10;;;23.40;99.90;;;;;;5012461;28;20108;-92
2021/06/30 09:22:44;;;;;;;2.63;1.10;;;23.50;99.90;;;;;;5011290;28;20026;-91
2021/06/30 09:25:25;;;;;;;1.15;0.90;;;23.80;99.90;;;;;;5011464;28;20034;-92
2021/06/30 09:27:51;;;;;;;2.90;1.15;;;24.00;99.90;;;;;;5013052;28;20065;-92
2021/06/30 09:30:17;;;;;;;2.05;1.08;;;24.10;99.90;;;;;;5012291;28;20057;-92
2021/06/30 09:33:00;;;;;;;2.75;1.00;;;23.50;99.90;;;;;;5012086;28;20032;-92
2021/06/30 09:35:30;;;;;;;1.63;1.00;;;23.20;99.90;;;;;;5011924;28;20049;-92
2021/06/30 09:37:56;;;;;;;1.58;0.98;;;23.30;99.90;;;;;;5011956;28;20430;-93
2021/06/30 09:40:40;;;;;;;1.08;0.90;;;23.20;99.90;;;;;;5015349;28;20026;-92
2021/06/30 09:43:24;;;;;;;1.00;0.90;;;23.10;99.90;;;;;;4999448;28;20629;-92
2021/06/30 09:45:50;;;;;;;1.08;0.80;;;22.80;99.90;;;;;;5016246;28;20029;-93
2021/06/30 09:48:27;;;;;;;1.17;0.88;;;22.70;99.90;;;;;;5016718;28;20041;-93
2021/06/30 09:50:54;;;;;;;0.98;0.88;;;22.60;99.90;;;;;;5014916;28;20533;-92
2021/06/30 09:53:35;;;;;;;1.17;0.88;;;22.70;99.90;;;;;;5015831;28;20041;-93
2021/06/30 09:56:15;;;;;;;1.73;1.10;;;22.10;99.90;;;;;;5016338;28;20049;-93
2021/06/30 09:58:41;;;;;;;1.23;0.90;;;22.10;99.90;;;;;;5015749;28;20161;-92
2021/06/30 10:01:18;;;;;;;2.10;1.00;;;22.20;99.90;;;;;;5015237;28;20034;-92
2021/06/30 10:03:44;;;;;;;2.75;1.10;;;22.30;99.90;;;;;;5015816;28;20034;-92
2021/06/30 10:06:31;;;;;;;0.90;0.90;;;22.50;99.90;;;;;;5016684;28;20018;-93
2021/06/30 10:08:59;;;;;;;2.85;1.00;;;22.60;99.90;;;;;;5015684;28;20041;-92
2021/06/30 10:11:27;;;;;;;1.27;0.90;;;22.90;99.90;;;;;;5015284;28;20513;-92
2021/06/30 10:13:54;;;;;;;3.38;1.00;;;22.90;99.90;;;;;;5014306;28;20552;-93
2021/06/30 10:16:21;;;;;;;0.85;0.80;;;22.80;99.90;;;;;;5015406;28;20041;-92
2021/06/30 10:18:55;;;;;;;2.25;1.02;;;22.80;99.90;;;;;;5019267;28;20646;-92
2021/06/30 10:21:25;;;;;;;1.35;1.00;;;23.10;99.90;;;;;;5019035;28;20025;-92
2021/06/30 10:23:51;;;;;;;1.73;1.00;;;23.30;99.90;;;;;;5017765;28;20034;-92
2021/06/30 10:26:19;;;;;;;2.58;0.90;;;23.30;99.90;;;;;;5019095;28;20049;-91
2021/06/30 10:28:49;;;;;;;1.52;0.85;;;23.50;99.90;;;;;;5017488;28;20029;-92
2021/06/30 10:31:14;;;;;;;0.80;0.80;;;23.90;99.90;;;;;;5014341;28;20026;-92
2021/06/30 10:33:41;;;;;;;1.10;0.80;;;24.10;99.90;;;;;;5015587;28;20505;-92
2021/06/30 10:36:10;;;;;;;0.95;0.88;;;24.30;99.90;;;;;;5016055;28;20044;-93
2021/06/30 10:38:55;;;;;;;0.80;0.75;;;24.20;99.90;;;;;;5014411;28;20084;-93
2021/06/30 10:41:39;;;;;;;1.88;0.80;;;24.10;99.90;;;;;;5015762;28;20508;-92
2021/06/30 10:44:10;;;;;;;1.45;0.85;;;23.50;99.90;;;;;;5013883;28;20101;-92
2021/06/30 10:46:36;;;;;;;1.30;0.80;;;23.60;99.90;;;;;;5015374;28;20029;-91
2021/06/30 10:49:14;;;;;;;1.75;0.68;;;23.50;99.90;;;;;;5014737;28;20022;-92
2021/06/30 10:51:54;;;;;;;1.65;0.60;;;23.50;99.90;;;;;;5041462;28;20120;-92
2021/06/30 10:54:35;;;;;;;0.95;0.90;;;23.40;99.90;;;;;;5014623;28;20049;-93
2021/06/30 10:57:27;;;;;;;0.80;0.80;;;23.30;99.90;;;;;;5014932;28;20109;-92
2021/06/30 11:00:02;;;;;;;0.93;0.93;;;23.60;99.90;;;;;;5014955;28;20025;-92
2021/06/30 11:02:31;;;;;;;0.95;0.90;;;24.10;99.90;;;;;;5014715;28;20573;-92
2021/06/30 11:05:11;;;;;;;0.88;0.85;;;24.50;99.90;;;;;;5013609;28;20045;-93
2021/06/30 11:07:37;;;;;;;1.98;0.90;;;24.70;99.90;;;;;;4993792;28;20039;-93
2021/06/30 11:10:20;;;;;;;1.73;0.90;;;24.90;99.90;;;;;;5013594;28;20026;-92
2021/06/30 11:13:00;;;;;;;1.13;0.80;;;25.40;99.90;;;;;;5042588;28;20382;-92
2021/06/30 11:15:39;;;;;;;1.52;0.90;;;25.40;99.90;;;;;;5013977;28;20033;-94
2021/06/30 11:18:25;;;;;;;1.67;0.77;;;25.70;99.90;;;;;;5012933;28;20033;-93
2021/06/30 11:20:53;;;;;;;1.92;0.88;;;26.10;99.90;;;;;;5014618;28;20022;-93
2021/06/30 11:23:21;;;;;;;1.50;1.08;;;26.10;99.90;;;;;;5014237;28;20052;-94
2021/06/30 11:25:49;;;;;;;1.75;1.00;;;26.60;99.90;;;;;;5014560;28;20041;-94
2021/06/30 11:28:36;;;;;;;1.13;1.02;;;26.90;99.90;;;;;;5013272;28;20068;-93
2021/06/30 11:31:25;;;;;;;1.20;1.10;;;27.10;99.90;;;;;;5014261;28;20029;-93
2021/06/30 11:34:11;;;;;;;1.08;0.98;;;27.20;99.90;;;;;;5023895;28;20038;-95
2021/06/30 11:36:38;;;;;;;1.48;0.73;;;26.60;99.90;;;;;;5011662;28;20045;-95
2021/06/30 11:39:08;;;;;;;2.65;0.95;;;26.50;99.90;;;;;;5013707;28;20037;-92
2021/06/30 11:41:45;;;;;;;1.10;1.00;;;26.40;99.90;;;;;;5014995;28;20029;-92
2021/06/30 11:44:11;;;;;;;1.17;0.90;;;26.30;99.90;;;;;;5012904;28;20034;-92
2021/06/30 11:46:42;;;;;;;1.08;0.80;;;26.10;99.90;;;;;;5013403;28;20497;-92
2021/06/30 11:49:11;;;;;;;3.53;0.85;;;26.30;99.90;;;;;;5014185;28;20045;-96
2021/06/30 11:51:37;;;;;;;1.65;0.80;;;26.30;99.90;;;;;;5015866;28;20034;-95
2021/06/30 11:54:11;;;;;;;1.10;1.00;;;26.50;99.90;;;;;;5014344;28;20145;-92
2021/06/30 11:56:41;;;;;;;1.75;0.90;;;27.00;99.90;;;;;;5014298;28;20030;-92
2021/06/30 11:59:16;;;;;;;1.40;0.73;;;27.30;99.90;;;;;;5013140;28;20105;-93
2021/06/30 12:01:41;;;;;;;2.20;0.82;;;27.10;99.90;;;;;;5012161;28;20026;-93
2021/06/30 12:04:08;;;;;;;1.00;1.00;;;27.10;99.90;;;;;;5012811;28;20040;-93
2021/06/30 12:06:34;;;;;;;1.60;0.80;;;26.70;99.90;;;;;;5013127;28;20030;-94
2021/06/30 12:09:16;;;;;;;1.55;0.82;;;26.60;99.90;;;;;;5014407;28;20037;-93
2021/06/30 12:11:45;;;;;;;1.83;0.93;;;26.90;99.90;;;;;;5013196;28;20050;-93
2021/06/30 12:14:17;;;;;;;1.80;0.80;;;27.00;99.90;;;;;;5013054;28;20073;-93
2021/06/30 12:16:42;;;;;;;0.90;0.90;;;27.50;99.90;;;;;;5012924;28;20052;-93
2021/06/30 12:19:10;;;;;;;1.15;0.90;;;27.20;99.90;;;;;;5013852;28;20113;-92
2021/06/30 12:21:39;;;;;;;1.08;0.90;;;27.30;99.90;;;;;;5012836;28;20490;-92
2021/06/30 12:24:17;;;;;;;1.08;0.80;;;28.10;99.90;;;;;;5028230;28;20037;-92
2021/06/30 12:26:57;;;;;;;3.15;1.15;;;28.10;99.90;;;;;;5013990;28;20037;-93
2021/06/30 12:29:23;;;;;;;0.93;0.88;;;27.60;99.90;;;;;;5012780;28;20079;-93
2021/06/30 12:31:49;;;;;;;3.35;1.35;;;27.10;99.90;;;;;;5013848;28;20029;-92
2021/06/30 12:34:15;;;;;;;0.88;0.80;;;26.40;99.90;;;;;;5012751;28;20089;-93
2021/06/30 12:36:44;;;;;;;1.48;0.70;;;26.50;99.90;;;;;;5013043;28;20032;-93
2021/06/30 12:39:29;;;;;;;3.17;0.90;;;26.30;99.90;;;;;;5013943;28;20119;-93
2021/06/30 12:42:02;;;;;;;1.00;0.88;;;26.90;99.90;;;;;;5012518;28;20386;-92
2021/06/30 12:44:30;;;;;;;1.90;0.90;;;26.90;99.90;;;;;;5013651;28;20044;-93
2021/06/30 12:47:11;;;;;;;3.88;2.17;;;27.30;99.90;;;;;;5013593;28;20030;-93
2021/06/30 12:49:37;;;;;;;1.40;0.90;;;27.60;99.90;;;;;;5012450;28;20033;-93
2021/06/30 12:52:04;;;;;;;2.72;0.90;;;27.90;99.90;;;;;;5013150;28;20073;-92
2021/06/30 12:54:30;;;;;;;1.65;0.90;;;27.30;99.90;;;;;;5010147;28;20065;-93
2021/06/30 12:57:04;;;;;;;1.02;0.90;;;27.20;99.90;;;;;;5013485;28;20033;-93